Time;durP1;ratioP1;P1;durP2;ratioP2;P2;SDS_P1;SDS_P2;PMS_P1;PMS_P2;Temp;Humidity;BMP_temperature;BMP_pressure;BME280_temperature;BME280_humidity;BME280_pressure;Samples;Min_cycle;Max_cycle;Signal;HPM_P1;HPM_P2
2022/08/10 00:00:52;;;;;;;1.80;1.70;;;24.20;32.80;;;;;;20952;6731;119837;-85
2022/08/10 00:03:27;;;;;;;2.20;2.00;;;23.90;33.10;;;;;;20950;6727;116983;-84
2022/08/10 00:06:03;;;;;;;2.57;2.10;;;23.60;33.40;;;;;;20926;6717;117450;-83
2022/08/10 00:08:39;;;;;;;2.13;2.03;;;23.40;33.70;;;;;;21040;6702;116884;-83
2022/08/10 00:11:15;;;;;;;3.10;1.90;;;23.50;33.50;;;;;;20830;6702;308050;-83
2022/08/10 00:13:50;;;;;;;2.57;2.00;;;23.50;33.90;;;;;;20766;6717;277104;-83
2022/08/10 00:16:26;;;;;;;2.17;1.98;;;23.90;33.80;;;;;;20674;6717;338579;-83
2022/08/10 00:19:02;;;;;;;2.10;2.00;;;24.20;33.70;;;;;;21025;6707;117282;-83
2022/08/10 00:21:37;;;;;;;2.10;1.90;;;24.00;33.40;;;;;;21003;6707;116844;-82
2022/08/10 00:24:13;;;;;;;2.17;2.00;;;23.70;33.70;;;;;;21019;6707;117964;-83
2022/08/10 00:26:48;;;;;;;2.42;2.03;;;23.40;34.00;;;;;;20652;6717;307507;-83
2022/08/10 00:29:24;;;;;;;2.50;2.30;;;23.50;34.20;;;;;;20800;6702;336790;-83
2022/08/10 00:31:59;;;;;;;2.23;2.13;;;23.90;33.80;;;;;;20994;6717;117109;-83
2022/08/10 00:34:35;;;;;;;2.10;2.00;;;23.70;33.70;;;;;;20875;6746;117594;-83
2022/08/10 00:37:11;;;;;;;2.20;2.10;;;23.40;34.00;;;;;;20729;6770;118506;-83
2022/08/10 00:39:46;;;;;;;3.07;2.00;;;23.20;34.40;;;;;;20885;6745;119816;-83
2022/08/10 00:42:26;;;;;;;2.93;2.03;;;23.20;34.90;;;;;;20679;6748;277785;-83
2022/08/10 00:44:59;;;;;;;2.27;1.90;;;23.20;34.90;;;;;;20839;6766;118127;-83
2022/08/10 00:47:36;;;;;;;2.70;2.00;;;23.20;34.60;;;;;;20725;6811;118284;-83
2022/08/10 00:50:12;;;;;;;5.90;4.03;;;23.00;34.80;;;;;;20868;6809;117527;-83
2022/08/10 00:52:47;;;;;;;4.20;3.23;;;22.70;34.90;;;;;;21021;6711;116834;-83
2022/08/10 00:55:23;;;;;;;2.67;2.47;;;22.60;35.10;;;;;;20719;6728;277017;-83
2022/08/10 00:57:58;;;;;;;3.37;2.15;;;22.90;35.40;;;;;;20708;6743;338309;-83
2022/08/10 01:00:34;;;;;;;1.77;1.67;;;23.30;34.70;;;;;;21021;6719;117513;-82
2022/08/10 01:03:09;;;;;;;2.30;2.10;;;23.30;34.60;;;;;;21022;6707;116604;-83
2022/08/10 01:05:46;;;;;;;3.07;1.83;;;23.00;34.80;;;;;;20715;6714;307875;-83
2022/08/10 01:08:26;;;;;;;3.47;1.97;;;23.20;35.30;;;;;;20897;6770;118623;-82
2022/08/10 01:11:02;;;;;;;2.83;2.23;;;23.10;35.10;;;;;;20941;6731;116997;-83
2022/08/10 01:13:40;;;;;;;3.30;3.00;;;22.80;35.10;;;;;;20970;6718;117947;-83
2022/08/10 01:16:26;;;;;;;2.30;2.10;;;22.50;35.30;;;;;;20909;6718;117209;-82
2022/08/10 01:19:14;;;;;;;2.43;2.23;;;22.40;35.60;;;;;;20814;6703;305870;-83
2022/08/10 01:22:03;;;;;;;2.33;2.23;;;22.70;35.80;;;;;;20809;6703;275849;-83
2022/08/10 01:25:11;;;;;;;2.78;2.10;;;23.10;35.30;;;;;;20846;6718;303862;-83
2022/08/10 01:27:47;;;;;;;4.00;2.20;;;23.40;34.90;;;;;;19602;7139;288898;-90
2022/08/10 01:30:22;;;;;;;2.23;2.03;;;23.60;34.70;;;;;;19641;7156;123927;-90
2022/08/10 01:33:11;;;;;;;2.28;2.17;;;23.40;34.70;;;;;;19930;6831;280147;-83
2022/08/10 01:35:51;;;;;;;2.30;2.10;;;23.40;35.20;;;;;;20602;6759;311919;-90
2022/08/10 01:38:25;;;;;;;2.20;2.00;;;23.50;34.70;;;;;;20738;6754;276120;-82
2022/08/10 01:41:11;;;;;;;3.47;2.10;;;23.80;34.50;;;;;;20614;6767;279040;-84
2022/08/10 01:43:53;;;;;;;4.33;2.20;;;23.80;34.50;;;;;;20523;6792;277877;-88
2022/08/10 01:46:30;;;;;;;2.30;2.00;;;23.90;33.90;;;;;;20535;6757;280345;-86
2022/08/10 01:49:07;;;;;;;2.05;1.95;;;23.90;34.50;;;;;;20674;6750;276851;-83
2022/08/10 01:51:49;;;;;;;2.53;2.03;;;23.90;34.50;;;;;;20619;6758;307124;-83
2022/08/10 01:54:25;;;;;;;2.10;2.00;;;23.90;34.50;;;;;;20862;6757;117546;-83
2022/08/10 01:57:01;;;;;;;2.30;2.10;;;23.50;34.70;;;;;;20573;6747;307281;-83
2022/08/10 01:59:36;;;;;;;2.30;2.10;;;23.40;35.00;;;;;;20639;6753;307601;-83
2022/08/10 02:02:12;;;;;;;3.53;2.43;;;23.50;35.10;;;;;;20878;6746;119236;-82
2022/08/10 02:04:47;;;;;;;2.80;2.47;;;23.20;35.10;;;;;;20790;6788;117367;-83
2022/08/10 02:07:23;;;;;;;3.13;2.10;;;22.80;35.40;;;;;;20661;6757;117802;-83
2022/08/10 02:09:58;;;;;;;2.47;2.30;;;22.50;35.90;;;;;;20861;6758;117571;-83
2022/08/10 02:12:34;;;;;;;2.22;2.03;;;22.20;36.10;;;;;;20661;6753;307204;-83
2022/08/10 02:15:10;;;;;;;2.43;2.23;;;22.50;36.80;;;;;;20927;6740;118057;-83
2022/08/10 02:17:50;;;;;;;2.40;2.20;;;22.40;36.50;;;;;;20653;6751;308633;-83
2022/08/10 02:20:26;;;;;;;2.55;2.20;;;22.60;36.50;;;;;;20663;6751;337018;-84
2022/08/10 02:23:07;;;;;;;3.20;2.23;;;22.90;36.30;;;;;;20571;6784;307054;-83
2022/08/10 02:25:41;;;;;;;2.30;2.00;;;23.10;36.00;;;;;;20865;6736;117426;-83
2022/08/10 02:28:17;;;;;;;2.60;2.00;;;22.80;35.90;;;;;;20991;6726;119080;-83
2022/08/10 02:30:54;;;;;;;3.77;2.23;;;22.50;36.30;;;;;;20742;6728;309057;-86
2022/08/10 02:33:30;;;;;;;2.30;2.20;;;22.60;36.70;;;;;;20780;6711;275813;-83
2022/08/10 02:36:07;;;;;;;2.10;2.00;;;22.90;36.30;;;;;;20676;6728;309436;-83
2022/08/10 02:38:42;;;;;;;3.28;2.12;;;23.10;36.10;;;;;;20744;6728;276742;-83
2022/08/10 02:41:18;;;;;;;2.17;1.97;;;23.20;35.80;;;;;;20792;6711;291156;-84
2022/08/10 02:43:54;;;;;;;2.20;2.10;;;23.30;36.40;;;;;;20675;6743;308362;-83
2022/08/10 02:46:39;;;;;;;2.23;2.10;;;23.40;35.80;;;;;;20911;6712;117090;-83
2022/08/10 02:49:15;;;;;;;2.07;1.97;;;22.60;36.40;;;;;;20994;6765;116904;-83
2022/08/10 02:51:57;;;;;;;2.50;2.30;;;22.50;36.30;;;;;;20986;6712;117215;-83
2022/08/10 02:54:33;;;;;;;2.50;2.40;;;22.20;36.70;;;;;;20966;6726;116846;-83
2022/08/10 02:57:09;;;;;;;2.20;2.10;;;22.00;37.10;;;;;;20616;6726;307240;-83
2022/08/10 02:59:44;;;;;;;2.35;2.22;;;22.20;37.50;;;;;;20661;6746;275994;-83
2022/08/10 03:02:29;;;;;;;2.40;2.30;;;22.60;37.00;;;;;;20689;6747;310207;-83
2022/08/10 03:05:08;;;;;;;2.43;2.17;;;22.80;36.70;;;;;;20900;6747;118966;-83
2022/08/10 03:07:45;;;;;;;2.40;2.30;;;22.60;36.70;;;;;;20767;6718;305190;-83
2022/08/10 03:10:27;;;;;;;2.10;2.00;;;22.60;37.00;;;;;;21004;6718;118045;-82
2022/08/10 03:13:03;;;;;;;2.30;2.20;;;22.40;37.00;;;;;;20727;6741;306693;-83
2022/08/10 03:15:39;;;;;;;2.35;2.20;;;22.50;37.30;;;;;;20567;6781;311498;-84
2022/08/10 03:18:15;;;;;;;2.07;1.97;;;22.70;36.90;;;;;;20813;6777;117702;-84
2022/08/10 03:20:51;;;;;;;2.30;2.10;;;22.50;36.90;;;;;;20898;6747;117551;-85
2022/08/10 03:23:26;;;;;;;2.57;2.37;;;22.10;37.30;;;;;;20714;6734;276539;-85
2022/08/10 03:26:03;;;;;;;2.22;2.12;;;22.20;37.70;;;;;;20666;6734;334117;-84
2022/08/10 03:28:39;;;;;;;3.13;2.50;;;22.50;37.50;;;;;;20893;6751;117563;-84
2022/08/10 03:31:14;;;;;;;2.40;2.20;;;22.30;37.40;;;;;;20709;6745;305711;-84
2022/08/10 03:33:50;;;;;;;2.53;2.25;;;22.30;37.70;;;;;;20762;6724;337302;-84
2022/08/10 03:36:26;;;;;;;2.60;2.40;;;22.50;37.50;;;;;;20915;6716;117114;-84
2022/08/10 03:39:02;;;;;;;3.40;2.40;;;22.20;37.80;;;;;;20613;6731;308623;-91
2022/08/10 03:41:42;;;;;;;3.20;2.42;;;22.20;37.80;;;;;;20773;6716;307596;-84
2022/08/10 03:44:19;;;;;;;2.20;2.00;;;22.40;37.70;;;;;;20945;6731;117402;-85
2022/08/10 03:46:55;;;;;;;2.53;2.33;;;22.20;37.70;;;;;;20594;6734;278236;-84
2022/08/10 03:49:31;;;;;;;2.37;2.28;;;22.20;37.80;;;;;;20707;6734;305104;-83
2022/08/10 03:52:06;;;;;;;2.70;2.50;;;22.40;37.70;;;;;;20683;6748;289246;-84
2022/08/10 03:54:42;;;;;;;4.00;2.23;;;22.60;37.20;;;;;;20632;6763;307233;-85
2022/08/10 03:57:19;;;;;;;2.72;2.53;;;22.60;37.20;;;;;;20469;6764;282037;-84
2022/08/10 03:59:54;;;;;;;2.50;2.30;;;22.70;37.20;;;;;;20682;6762;303546;-84
2022/08/10 04:02:30;;;;;;;2.73;2.07;;;22.70;37.10;;;;;;20893;6762;117090;-84
2022/08/10 04:05:07;;;;;;;2.07;1.97;;;21.90;37.60;;;;;;20900;6746;118151;-91
2022/08/10 04:07:43;;;;;;;2.90;2.30;;;21.90;37.80;;;;;;20673;6746;289516;-85
2022/08/10 04:10:20;;;;;;;2.80;2.50;;;22.00;38.30;;;;;;20729;6728;323183;-86
2022/08/10 04:12:56;;;;;;;2.37;2.27;;;22.20;38.00;;;;;;20909;6743;117520;-84
2022/08/10 04:15:31;;;;;;;2.60;2.40;;;22.00;38.00;;;;;;20910;6728;118176;-84
2022/08/10 04:18:07;;;;;;;2.60;2.40;;;21.60;38.30;;;;;;20865;6758;117085;-84
2022/08/10 04:20:49;;;;;;;2.72;2.20;;;21.30;38.70;;;;;;20746;6731;276863;-84
2022/08/10 04:23:25;;;;;;;3.17;2.20;;;21.50;38.90;;;;;;20913;6731;117227;-84
2022/08/10 04:26:01;;;;;;;2.77;2.43;;;21.50;38.70;;;;;;20672;6731;306679;-84
2022/08/10 04:28:38;;;;;;;2.60;2.40;;;21.70;38.70;;;;;;20729;6731;306474;-84
2022/08/10 04:31:13;;;;;;;2.27;2.17;;;22.00;38.20;;;;;;21024;6711;122734;-84
2022/08/10 04:33:49;;;;;;;2.53;2.33;;;21.80;38.10;;;;;;20853;6801;117552;-84
2022/08/10 04:36:26;;;;;;;4.07;2.67;;;21.50;38.40;;;;;;20914;6715;117032;-85
2022/08/10 04:39:02;;;;;;;2.40;2.30;;;21.30;38.70;;;;;;20946;6730;116898;-84
2022/08/10 04:41:37;;;;;;;3.53;2.57;;;21.20;39.00;;;;;;20883;6745;119709;-85
2022/08/10 04:44:13;;;;;;;3.60;2.57;;;21.10;39.10;;;;;;20776;6777;117377;-85
2022/08/10 04:46:51;;;;;;;2.60;2.40;;;21.00;39.10;;;;;;20624;6730;278322;-84
2022/08/10 04:49:27;;;;;;;2.70;2.50;;;21.40;39.10;;;;;;20727;6724;278481;-85
2022/08/10 04:52:02;;;;;;;2.57;2.47;;;21.80;38.30;;;;;;20726;6735;288785;-85
2022/08/10 04:54:38;;;;;;;5.65;2.37;;;22.10;37.90;;;;;;20717;6736;305593;-85
2022/08/10 04:57:14;;;;;;;2.67;2.47;;;22.40;37.50;;;;;;20566;6736;277604;-85
2022/08/10 04:59:49;;;;;;;2.40;2.30;;;22.50;37.20;;;;;;20906;6739;119115;-85
2022/08/10 05:02:26;;;;;;;2.47;2.30;;;22.30;37.60;;;;;;20687;6747;305864;-85
2022/08/10 05:05:02;;;;;;;2.55;2.35;;;22.50;37.40;;;;;;20645;6753;336074;-85
2022/08/10 05:07:37;;;;;;;26.00;23.80;;;22.50;37.30;;;;;;20785;6761;122892;-84
2022/08/10 05:10:13;;;;;;;2.43;2.30;;;22.30;37.50;;;;;;20835;6764;117387;-85
2022/08/10 05:12:49;;;;;;;2.80;2.60;;;22.00;37.90;;;;;;20931;6744;117317;-85
2022/08/10 05:15:26;;;;;;;2.17;2.10;;;21.80;38.20;;;;;;20846;6755;117465;-85
2022/08/10 05:18:01;;;;;;;4.77;2.60;;;21.60;38.40;;;;;;20920;6750;120066;-85
2022/08/10 05:20:37;;;;;;;4.20;2.30;;;21.50;38.60;;;;;;20740;6737;276175;-84
2022/08/10 05:23:12;;;;;;;3.00;2.20;;;21.80;38.30;;;;;;20710;6739;306501;-85
2022/08/10 05:25:50;;;;;;;2.83;2.20;;;22.60;37.20;;;;;;20595;6754;281106;-85
2022/08/10 05:28:27;;;;;;;2.80;2.57;;;22.80;36.70;;;;;;20702;6736;281234;-85
2022/08/10 05:31:04;;;;;;;3.60;2.30;;;23.00;36.50;;;;;;20624;6777;277098;-86
2022/08/10 05:33:39;;;;;;;2.27;2.07;;;23.00;36.40;;;;;;20828;6762;117113;-84
2022/08/10 05:36:15;;;;;;;4.43;2.50;;;22.80;36.50;;;;;;20753;6763;117314;-87
2022/08/10 05:38:50;;;;;;;2.30;2.20;;;22.40;37.00;;;;;;20955;6724;117815;-86
2022/08/10 05:41:26;;;;;;;2.50;2.30;;;22.10;37.30;;;;;;20650;6742;306624;-84
2022/08/10 05:44:02;;;;;;;3.05;2.42;;;22.70;36.80;;;;;;20769;6729;335538;-84
2022/08/10 05:46:38;;;;;;;3.23;2.23;;;22.70;36.80;;;;;;20781;6742;118681;-84
2022/08/10 05:49:13;;;;;;;3.83;2.43;;;22.60;36.80;;;;;;20911;6744;116989;-84
2022/08/10 05:51:49;;;;;;;2.20;2.10;;;22.40;37.00;;;;;;20920;6734;117391;-85
2022/08/10 05:54:25;;;;;;;4.13;2.37;;;22.10;37.10;;;;;;20911;6743;120723;-85
2022/08/10 05:57:01;;;;;;;2.30;2.20;;;22.30;37.20;;;;;;20584;6740;281332;-84
2022/08/10 05:59:36;;;;;;;2.37;2.27;;;22.20;37.20;;;;;;20974;6725;140393;-85
2022/08/10 06:02:12;;;;;;;2.23;2.13;;;22.30;37.20;;;;;;20972;6725;117414;-86
2022/08/10 06:04:48;;;;;;;2.90;2.40;;;22.10;37.50;;;;;;20835;6788;118968;-87
2022/08/10 06:07:25;;;;;;;2.40;2.30;;;22.00;37.80;;;;;;20485;6740;310350;-87
2022/08/10 06:10:00;;;;;;;2.53;2.30;;;22.30;37.60;;;;;;20910;6750;117182;-87
2022/08/10 06:12:36;;;;;;;2.50;2.30;;;22.40;37.40;;;;;;20604;6768;306257;-87
2022/08/10 06:15:13;;;;;;;3.12;2.47;;;22.70;37.30;;;;;;20613;6766;309159;-87
2022/08/10 06:17:48;;;;;;;2.37;2.17;;;23.10;36.70;;;;;;20601;6766;310296;-87
2022/08/10 06:20:24;;;;;;;7.60;2.30;;;23.40;36.50;;;;;;20790;6778;117211;-87
2022/08/10 06:22:59;;;;;;;2.30;2.20;;;23.30;36.40;;;;;;20891;6748;117030;-87
2022/08/10 06:25:36;;;;;;;2.40;2.20;;;23.10;36.60;;;;;;20647;6750;278785;-87
2022/08/10 06:28:12;;;;;;;2.20;2.10;;;23.30;36.50;;;;;;20632;6765;278084;-87
2022/08/10 06:30:50;;;;;;;2.20;2.00;;;23.60;35.40;;;;;;20895;6751;117076;-87
2022/08/10 06:33:29;;;;;;;2.40;2.20;;;23.50;35.60;;;;;;20639;6758;306412;-86
2022/08/10 06:36:04;;;;;;;3.23;2.23;;;23.70;35.80;;;;;;20788;6756;120125;-88
2022/08/10 06:38:40;;;;;;;2.45;2.25;;;23.70;35.70;;;;;;20547;6771;338780;-90
2022/08/10 06:41:15;;;;;;;2.17;2.07;;;23.90;35.40;;;;;;20898;6742;122479;-89
2022/08/10 06:44:07;;;;;;;2.70;2.50;;;23.90;35.50;;;;;;20944;6728;116934;-89
2022/08/10 06:46:43;;;;;;;5.27;2.30;;;23.80;35.70;;;;;;20858;6745;119863;-91
2022/08/10 06:49:20;;;;;;;4.10;2.23;;;23.80;36.10;;;;;;20961;6733;116992;-88
2022/08/10 06:51:56;;;;;;;2.30;2.10;;;24.00;36.40;;;;;;20714;6748;308874;-89
2022/08/10 06:54:32;;;;;;;2.40;1.97;;;24.70;35.50;;;;;;20944;6733;116858;-88
2022/08/10 06:57:08;;;;;;;3.20;1.97;;;25.20;35.40;;;;;;20787;6748;117222;-90
2022/08/10 06:59:43;;;;;;;4.37;2.33;;;25.40;35.10;;;;;;20884;6748;119353;-88
2022/08/10 07:02:19;;;;;;;4.00;2.10;;;25.60;34.90;;;;;;20701;6748;306237;-88
2022/08/10 07:04:58;;;;;;;2.00;1.90;;;26.00;33.10;;;;;;20898;6749;117465;-87
2022/08/10 07:07:36;;;;;;;2.83;2.20;;;26.20;33.10;;;;;;20666;6815;120402;-87
2022/08/10 07:10:13;;;;;;;3.37;2.10;;;26.20;33.10;;;;;;20556;6790;307812;-86
2022/08/10 07:12:49;;;;;;;2.63;2.37;;;26.50;33.10;;;;;;20854;6756;118788;-86
2022/08/10 07:15:24;;;;;;;3.20;2.90;;;26.60;32.40;;;;;;20833;6763;117723;-87
2022/08/10 07:18:00;;;;;;;4.37;3.10;;;26.40;32.80;;;;;;20736;6730;279152;-86
2022/08/10 07:20:37;;;;;;;2.40;2.20;;;26.60;31.90;;;;;;20936;6745;116820;-87
2022/08/10 07:23:13;;;;;;;3.03;2.30;;;26.80;32.10;;;;;;20619;6768;307522;-87
2022/08/10 07:25:48;;;;;;;3.80;2.10;;;26.80;32.10;;;;;;20583;6762;279523;-87
2022/08/10 07:28:24;;;;;;;3.47;2.00;;;27.20;31.80;;;;;;20701;6789;278210;-86
2022/08/10 07:30:59;;;;;;;4.28;3.60;;;27.50;30.70;;;;;;20726;6733;307082;-86
2022/08/10 07:33:36;;;;;;;2.13;2.00;;;27.80;30.50;;;;;;20870;6748;120256;-86
2022/08/10 07:36:11;;;;;;;2.27;2.17;;;27.80;31.00;;;;;;20830;6750;122247;-86
2022/08/10 07:38:47;;;;;;;2.73;1.90;;;27.60;31.30;;;;;;20786;6714;306720;-86
2022/08/10 07:41:22;;;;;;;2.20;2.00;;;27.80;30.80;;;;;;20741;6721;276391;-87
2022/08/10 07:43:58;;;;;;;3.15;1.90;;;28.20;29.70;;;;;;20678;6748;306884;-86
2022/08/10 07:46:34;;;;;;;3.00;1.90;;;28.60;30.00;;;;;;20652;6733;336812;-85
2022/08/10 07:49:10;;;;;;;2.40;2.20;;;28.90;29.70;;;;;;20981;6721;117287;-87
2022/08/10 07:51:54;;;;;;;5.00;2.10;;;28.70;29.60;;;;;;20960;6721;116896;-86
2022/08/10 07:54:20;;;;;;;2.20;1.90;;;28.50;29.90;;;;;;20679;6748;307263;-87
2022/08/10 07:56:56;;;;;;;2.80;1.90;;;28.70;30.00;;;;;;20628;6733;278519;-87
2022/08/10 07:59:36;;;;;;;2.57;1.90;;;29.40;29.50;;;;;;20729;6721;309288;-86
2022/08/10 08:02:14;;;;;;;3.58;1.95;;;29.40;29.90;;;;;;20677;6748;308425;-87
2022/08/10 08:04:50;;;;;;;3.83;1.85;;;30.00;28.80;;;;;;20527;6834;279201;-85
2022/08/10 08:07:26;;;;;;;1.93;1.77;;;30.00;28.80;;;;;;20741;6748;117602;-88
2022/08/10 08:10:01;;;;;;;2.17;2.00;;;29.80;29.00;;;;;;20919;6742;117691;-88
2022/08/10 08:12:37;;;;;;;2.90;1.80;;;29.60;29.70;;;;;;20666;6742;306619;-90
2022/08/10 08:15:13;;;;;;;4.60;1.97;;;29.70;28.70;;;;;;20925;6742;119452;-87
2022/08/10 08:17:48;;;;;;;5.10;1.90;;;29.60;28.80;;;;;;20672;6635;290919;-91
2022/08/10 08:23:59;;;;;;;3.17;1.80;;;30.10;28.90;;;;;;20794;6717;285352;-86
2022/08/10 08:26:35;;;;;;;2.47;1.87;;;30.90;26.80;;;;;;20669;6717;308258;-85
2022/08/10 08:29:12;;;;;;;1.70;1.60;;;30.90;26.80;;;;;;20939;6730;117129;-88
2022/08/10 08:31:49;;;;;;;2.60;1.83;;;30.70;26.90;;;;;;20656;6751;306685;-86
2022/08/10 08:34:24;;;;;;;4.70;1.90;;;30.70;26.10;;;;;;20608;6774;337416;-86
2022/08/10 08:37:00;;;;;;;2.43;1.90;;;30.80;26.60;;;;;;20831;6741;117238;-86
2022/08/10 08:39:46;;;;;;;2.17;1.53;;;30.60;26.50;;;;;;21018;6708;116803;-86
2022/08/10 08:42:48;;;;;;;4.07;1.67;;;30.30;26.70;;;;;;20778;6720;291316;-92
2022/08/10 08:45:50;;;;;;;2.17;1.62;;;30.40;26.50;;;;;;20739;6720;333170;-91
2022/08/10 08:48:56;;;;;;;4.17;1.50;;;30.70;26.20;;;;;;20814;6706;305079;-88
2022/08/10 08:52:01;;;;;;;1.73;1.60;;;31.10;25.90;;;;;;20751;6721;305441;-86
2022/08/10 08:54:56;;;;;;;2.40;1.67;;;31.30;24.90;;;;;;19819;7133;119333;-87
2022/08/10 08:57:56;;;;;;;1.67;1.58;;;31.10;25.00;;;;;;20451;6817;309746;-88
2022/08/10 09:00:36;;;;;;;2.95;1.65;;;31.10;25.00;;;;;;20680;6748;336221;-88
2022/08/10 09:03:20;;;;;;;2.80;1.40;;;31.30;24.80;;;;;;20682;6748;307975;-88
2022/08/10 09:06:03;;;;;;;2.92;1.65;;;31.40;24.70;;;;;;20640;6745;310669;-89
2022/08/10 09:08:51;;;;;;;1.37;1.37;;;31.50;24.60;;;;;;20880;6753;117071;-87
2022/08/10 09:11:51;;;;;;;1.30;1.30;;;30.90;24.70;;;;;;20156;6800;118760;-88
2022/08/10 09:14:37;;;;;;;2.63;1.43;;;31.00;24.10;;;;;;20646;6756;306162;-88
2022/08/10 09:17:46;;;;;;;2.37;1.60;;;31.00;24.10;;;;;;20553;6728;307544;-91
2022/08/10 09:20:41;;;;;;;3.00;1.50;;;31.10;24.00;;;;;;20716;6742;305393;-90
2022/08/10 09:23:44;;;;;;;2.90;1.40;;;31.40;23.80;;;;;;20671;6752;308044;-91
2022/08/10 09:26:20;;;;;;;1.77;1.47;;;31.50;23.20;;;;;;20563;6765;308143;-89
2022/08/10 09:29:05;;;;;;;2.10;1.37;;;31.60;23.20;;;;;;20757;6730;276802;-91
2022/08/10 09:31:31;;;;;;;4.17;1.40;;;31.70;23.80;;;;;;20965;6730;117198;-90
2022/08/10 09:34:13;;;;;;;1.60;1.50;;;31.50;23.50;;;;;;20766;6730;305667;-92
2022/08/10 09:36:49;;;;;;;2.43;1.50;;;31.50;23.60;;;;;;20637;6723;312299;-90
2022/08/10 09:39:41;;;;;;;2.90;1.40;;;31.50;23.20;;;;;;20767;6718;298766;-94
2022/08/10 09:42:17;;;;;;;1.70;1.60;;;31.70;23.10;;;;;;20852;6721;122234;-92
2022/08/10 09:45:15;;;;;;;1.70;1.60;;;31.50;23.20;;;;;;20731;6745;276777;-91
2022/08/10 09:47:55;;;;;;;1.70;1.43;;;31.50;23.10;;;;;;20713;6736;309194;-90
2022/08/10 09:50:57;;;;;;;2.50;1.40;;;31.70;22.50;;;;;;20624;6726;335554;-91
2022/08/10 09:53:59;;;;;;;2.60;1.60;;;31.80;22.60;;;;;;20944;6760;117404;-90
2022/08/10 09:57:01;;;;;;;1.73;1.47;;;31.70;23.10;;;;;;20926;6737;117041;-92
2022/08/10 09:59:40;;;;;;;4.63;1.43;;;31.50;23.40;;;;;;20960;6745;119724;-91
2022/08/10 10:02:51;;;;;;;3.40;1.40;;;31.30;23.50;;;;;;20846;6725;306035;-92
2022/08/10 10:05:30;;;;;;;1.60;1.50;;;31.50;22.60;;;;;;20857;6747;117721;-91
2022/08/10 10:07:56;;;;;;;2.10;1.45;;;31.40;22.60;;;;;;20798;6738;335002;-92
2022/08/10 10:10:32;;;;;;;2.80;1.40;;;31.50;22.40;;;;;;20712;6760;338900;-92
2022/08/10 10:13:08;;;;;;;1.53;1.43;;;31.60;22.30;;;;;;20745;6788;116744;-90
2022/08/10 10:16:04;;;;;;;2.50;1.40;;;31.10;22.70;;;;;;20650;6807;117942;-91
2022/08/10 10:18:53;;;;;;;1.63;1.53;;;31.10;22.70;;;;;;20886;6718;118360;-90
2022/08/10 10:21:45;;;;;;;2.63;1.53;;;30.90;23.00;;;;;;20866;6718;117615;-93
2022/08/10 10:24:21;;;;;;;1.37;1.33;;;30.70;22.90;;;;;;20997;6788;116111;-90
2022/08/10 10:27:05;;;;;;;1.50;1.27;;;30.70;22.90;;;;;;20851;6732;116759;-91
2022/08/10 10:29:41;;;;;;;1.70;1.37;;;30.60;22.90;;;;;;20750;6624;306058;-92
2022/08/10 10:32:31;;;;;;;1.40;1.30;;;31.10;21.80;;;;;;20707;6731;335803;-93
2022/08/10 10:35:20;;;;;;;3.70;1.50;;;31.00;21.80;;;;;;20930;6731;116891;-91
2022/08/10 10:37:57;;;;;;;5.00;1.30;;;30.80;22.90;;;;;;20937;6624;117419;-92
2022/08/10 10:40:41;;;;;;;1.87;1.40;;;30.70;22.70;;;;;;20886;6786;117322;-91
2022/08/10 10:43:51;;;;;;;2.00;1.40;;;30.70;22.70;;;;;;20378;6801;262592;-94
2022/08/10 10:46:37;;;;;;;1.53;1.47;;;30.70;22.80;;;;;;20934;6730;117343;-91
2022/08/10 10:49:32;;;;;;;1.30;1.20;;;30.70;22.80;;;;;;20957;6730;116935;-89
2022/08/10 10:52:44;;;;;;;1.60;1.50;;;30.70;22.70;;;;;;20733;6731;307710;-89
2022/08/10 10:55:33;;;;;;;1.50;1.20;;;31.00;22.30;;;;;;20903;6752;117419;-89
2022/08/10 10:58:26;;;;;;;2.90;1.30;;;31.20;22.50;;;;;;20914;6745;116764;-90
2022/08/10 11:01:10;;;;;;;1.50;1.40;;;31.10;22.30;;;;;;20741;6730;305441;-89
2022/08/10 11:03:56;;;;;;;;;;;;;;;;;;;;;
2022/08/10 11:17:24;;;;;;;1.37;1.33;;;32.10;22.20;;;;;;20890;6558;71642;-89
2022/08/10 11:20:12;;;;;;;2.63;1.40;;;32.00;21.90;;;;;;20499;6861;279209;-91
2022/08/10 11:22:48;;;;;;;1.80;1.30;;;32.00;22.20;;;;;;20511;6851;324952;-91
2022/08/10 11:25:15;;;;;;;1.60;1.50;;;32.20;22.00;;;;;;20655;6872;117324;-89
2022/08/10 11:28:00;;;;;;;3.00;1.50;;;32.10;22.20;;;;;;20480;6857;281079;-89
2022/08/10 11:30:30;;;;;;;1.80;1.30;;;32.30;22.40;;;;;;20508;6857;340452;-90
2022/08/10 11:33:00;;;;;;;1.77;1.50;;;32.30;22.60;;;;;;20691;6857;117472;-91
2022/08/10 11:35:26;;;;;;;2.03;1.30;;;32.30;22.60;;;;;;20676;6858;117723;-91
2022/08/10 11:38:10;;;;;;;1.80;1.40;;;32.10;22.40;;;;;;20508;6858;278732;-89
2022/08/10 11:40:56;;;;;;;2.37;1.40;;;32.20;21.70;;;;;;20731;6858;117343;-91
2022/08/10 11:43:25;;;;;;;52.83;47.70;;;32.10;22.30;;;;;;20719;6858;117456;-92
2022/08/10 11:45:50;;;;;;;1.37;1.37;;;31.90;21.90;;;;;;20462;6858;118521;-90
2022/08/10 11:48:23;;;;;;;1.37;1.27;;;31.70;21.70;;;;;;20477;6873;309874;-89
2022/08/10 11:50:49;;;;;;;2.20;1.20;;;31.70;21.60;;;;;;20499;6858;308804;-91
2022/08/10 11:53:28;;;;;;;1.87;1.50;;;31.90;22.00;;;;;;20661;6858;116892;-92
2022/08/10 11:55:56;;;;;;;1.27;1.27;;;31.70;22.00;;;;;;20742;6858;118155;-89
2022/08/10 12:01:07;;;;;;;1.63;1.33;;;31.80;22.40;;;;;;20751;6858;118682;-90
2022/08/10 12:03:33;;;;;;;1.40;1.30;;;31.80;22.40;;;;;;20520;6858;278964;-89
2022/08/10 12:05:58;;;;;;;3.20;1.10;;;31.80;21.80;;;;;;20748;6858;117695;-91
2022/08/10 12:08:58;;;;;;;;;;;;;;;;;;;;;
2022/08/10 12:11:29;;;;;;;1.40;1.30;;;31.80;21.90;;;;;;20581;6831;278700;-91
2022/08/10 12:14:06;;;;;;;2.03;1.20;;;32.10;22.10;;;;;;20687;6646;308254;-91
2022/08/10 12:16:41;;;;;;;1.50;1.30;;;32.30;22.00;;;;;;20705;6768;117226;-91
2022/08/10 12:19:26;;;;;;;2.53;1.33;;;32.20;22.00;;;;;;20463;6769;309843;-92
2022/08/10 12:22:08;;;;;;;1.27;1.27;;;32.20;21.80;;;;;;20718;6775;117540;-89
2022/08/10 12:24:47;;;;;;;1.30;1.20;;;32.10;21.90;;;;;;20528;6785;282227;-89
2022/08/10 12:27:22;;;;;;;2.10;1.30;;;32.20;22.10;;;;;;20746;6779;117432;-93
2022/08/10 12:30:02;;;;;;;1.20;1.10;;;32.00;21.50;;;;;;20570;6666;312142;-89
2022/08/10 12:32:47;;;;;;;2.70;1.57;;;32.00;21.50;;;;;;20711;6779;119939;-89
2022/08/10 12:35:56;;;;;;;2.35;1.30;;;31.90;21.70;;;;;;20521;6770;324720;-92
2022/08/10 12:38:52;;;;;;;1.10;1.10;;;32.00;21.80;;;;;;20904;6747;66684;-88
2022/08/10 12:41:30;;;;;;;2.73;1.37;;;31.80;21.30;;;;;;20650;6742;338271;-88
2022/08/10 12:44:07;;;;;;;2.33;1.50;;;31.90;21.00;;;;;;20855;6757;117264;-89
2022/08/10 12:46:49;;;;;;;3.07;1.40;;;31.90;21.20;;;;;;20758;6756;117473;-90
2022/08/10 12:49:25;;;;;;;1.77;1.60;;;31.80;22.10;;;;;;20662;6751;276868;-89
2022/08/10 12:52:05;;;;;;;1.63;1.50;;;31.80;22.10;;;;;;20898;6751;117270;-90
2022/08/10 12:54:41;;;;;;;7.03;1.80;;;31.80;22.00;;;;;;20880;6756;117256;-90
2022/08/10 12:57:17;;;;;;;3.57;1.70;;;31.40;22.40;;;;;;20644;6812;117483;-89
2022/08/10 12:59:57;;;;;;;2.33;1.30;;;31.30;22.20;;;;;;21143;6502;277807;31
2022/08/10 13:02:29;;;;;;;1.73;1.40;;;31.50;22.20;;;;;;20518;6832;278966;31
2022/08/10 13:04:58;;;;;;;1.30;1.23;;;31.70;21.60;;;;;;20518;6818;117411;31
2022/08/10 13:07:26;;;;;;;2.80;1.40;;;31.70;21.80;;;;;;20528;6818;278969;31
2022/08/10 13:09:52;;;;;;;2.93;1.37;;;31.80;21.20;;;;;;20701;6844;117911;31
2022/08/10 13:12:17;;;;;;;2.22;1.50;;;31.70;21.40;;;;;;20506;6844;338731;31
2022/08/10 13:14:46;;;;;;;2.30;1.33;;;31.70;21.70;;;;;;20731;6838;117504;31
2022/08/10 13:17:11;;;;;;;2.00;1.60;;;31.50;21.50;;;;;;20582;6823;307691;31
2022/08/10 13:19:38;;;;;;;1.50;1.40;;;31.60;21.90;;;;;;20488;6831;308175;31
2022/08/10 13:22:04;;;;;;;2.20;1.60;;;31.80;22.00;;;;;;20675;6846;117239;31
2022/08/10 13:24:34;;;;;;;1.60;1.50;;;31.70;22.00;;;;;;20701;6849;117587;31
2022/08/10 13:27:00;;;;;;;1.60;1.50;;;31.50;22.30;;;;;;20473;6851;279250;31
2022/08/10 13:29:25;;;;;;;3.45;1.55;;;31.60;22.20;;;;;;20502;6835;337632;31
2022/08/10 13:31:51;;;;;;;2.90;1.53;;;31.70;23.30;;;;;;20528;6835;311653;31
2022/08/10 13:34:23;;;;;;;1.60;1.50;;;31.80;21.80;;;;;;20490;6847;337718;31
2022/08/10 13:36:50;;;;;;;2.17;1.80;;;32.00;22.40;;;;;;20526;6833;324765;31
2022/08/10 13:39:19;;;;;;;2.85;1.50;;;32.10;22.70;;;;;;20451;6861;312998;31
2022/08/10 13:41:44;;;;;;;1.43;1.33;;;32.20;22.40;;;;;;20698;6840;119886;31
2022/08/10 13:44:10;;;;;;;1.57;1.30;;;32.00;22.40;;;;;;20772;6839;116180;31
2022/08/10 13:46:40;;;;;;;1.70;1.60;;;31.70;22.60;;;;;;20791;6839;117592;31
2022/08/10 13:49:04;;;;;;;1.77;1.50;;;31.40;22.60;;;;;;20771;6839;118203;31
2022/08/10 13:51:30;;;;;;;1.37;1.37;;;31.20;22.90;;;;;;20705;6843;117453;31
2022/08/10 13:53:55;;;;;;;3.07;1.53;;;31.00;23.00;;;;;;20717;6843;117302;31